sensor_id;sensor_type;location;lat;lon;timestamp;P1;durP1;ratioP1;P2;durP2;ratioP2
48853;SDS011;34673;52.808;17.856;2023-09-12T00:02:15;12.82;;;9.07;;
48853;SDS011;34673;52.808;17.856;2023-09-12T00:04:42;15.45;;;8.90;;
48853;SDS011;34673;52.808;17.856;2023-09-12T00:07:09;13.35;;;9.73;;
48853;SDS011;34673;52.808;17.856;2023-09-12T00:09:37;16.50;;;9.27;;
48853;SDS011;34673;52.808;17.856;2023-09-12T00:12:04;14.63;;;9.05;;
48853;SDS011;34673;52.808;17.856;2023-09-12T00:14:32;13.70;;;9.55;;
48853;SDS011;34673;52.808;17.856;2023-09-12T00:16:59;14.60;;;9.55;;
48853;SDS011;34673;52.808;17.856;2023-09-12T00:19:26;13.93;;;8.77;;
48853;SDS011;34673;52.808;17.856;2023-09-12T00:21:54;15.45;;;9.55;;
48853;SDS011;34673;52.808;17.856;2023-09-12T00:24:21;15.20;;;9.60;;
48853;SDS011;34673;52.808;17.856;2023-09-12T00:26:48;15.10;;;10.23;;
48853;SDS011;34673;52.808;17.856;2023-09-12T00:29:16;17.67;;;9.98;;
48853;SDS011;34673;52.808;17.856;2023-09-12T00:31:43;14.57;;;9.48;;
48853;SDS011;34673;52.808;17.856;2023-09-12T00:34:11;16.30;;;10.18;;
48853;SDS011;34673;52.808;17.856;2023-09-12T00:36:43;15.55;;;9.68;;
48853;SDS011;34673;52.808;17.856;2023-09-12T00:39:10;14.93;;;10.10;;
48853;SDS011;34673;52.808;17.856;2023-09-12T00:41:38;17.95;;;10.10;;
48853;SDS011;34673;52.808;17.856;2023-09-12T00:44:05;17.05;;;10.32;;
48853;SDS011;34673;52.808;17.856;2023-09-12T00:46:33;20.67;;;10.60;;
48853;SDS011;34673;52.808;17.856;2023-09-12T00:49:01;15.07;;;10.55;;
48853;SDS011;34673;52.808;17.856;2023-09-12T00:51:31;15.98;;;10.68;;
48853;SDS011;34673;52.808;17.856;2023-09-12T00:54:00;15.55;;;10.75;;
48853;SDS011;34673;52.808;17.856;2023-09-12T00:56:28;15.05;;;10.15;;
48853;SDS011;34673;52.808;17.856;2023-09-12T00:58:55;14.93;;;9.77;;
48853;SDS011;34673;52.808;17.856;2023-09-12T01:01:24;16.35;;;11.02;;
48853;SDS011;34673;52.808;17.856;2023-09-12T01:03:51;15.68;;;11.23;;
48853;SDS011;34673;52.808;17.856;2023-09-12T01:06:19;17.55;;;10.05;;
48853;SDS011;34673;52.808;17.856;2023-09-12T01:08:50;15.05;;;9.63;;
48853;SDS011;34673;52.808;17.856;2023-09-12T01:11:18;14.20;;;9.98;;
48853;SDS011;34673;52.808;17.856;2023-09-12T01:13:46;13.10;;;10.68;;
48853;SDS011;34673;52.808;17.856;2023-09-12T01:16:14;18.80;;;10.93;;
48853;SDS011;34673;52.808;17.856;2023-09-12T01:18:41;25.15;;;11.90;;
48853;SDS011;34673;52.808;17.856;2023-09-12T01:27:27;16.77;;;11.45;;
48853;SDS011;34673;52.808;17.856;2023-09-12T01:29:57;17.40;;;11.13;;
48853;SDS011;34673;52.808;17.856;2023-09-12T01:32:28;16.42;;;11.35;;
48853;SDS011;34673;52.808;17.856;2023-09-12T01:34:56;16.65;;;10.43;;
48853;SDS011;34673;52.808;17.856;2023-09-12T01:37:24;15.82;;;10.57;;
48853;SDS011;34673;52.808;17.856;2023-09-12T01:39:51;21.02;;;12.82;;
48853;SDS011;34673;52.808;17.856;2023-09-12T01:42:19;25.05;;;12.43;;
48853;SDS011;34673;52.808;17.856;2023-09-12T01:44:49;20.17;;;12.07;;
48853;SDS011;34673;52.808;17.856;2023-09-12T01:47:21;20.35;;;12.02;;
48853;SDS011;34673;52.808;17.856;2023-09-12T01:49:49;21.75;;;11.60;;
48853;SDS011;34673;52.808;17.856;2023-09-12T01:52:20;14.98;;;11.77;;
48853;SDS011;34673;52.808;17.856;2023-09-12T01:54:48;18.17;;;11.32;;
48853;SDS011;34673;52.808;17.856;2023-09-12T01:57:18;17.57;;;11.63;;
48853;SDS011;34673;52.808;17.856;2023-09-12T01:59:48;19.02;;;11.60;;
48853;SDS011;34673;52.808;17.856;2023-09-12T02:02:16;17.27;;;11.68;;
48853;SDS011;34673;52.808;17.856;2023-09-12T02:04:51;19.15;;;11.82;;
48853;SDS011;34673;52.808;17.856;2023-09-12T02:07:40;18.42;;;11.40;;
48853;SDS011;34673;52.808;17.856;2023-09-12T02:10:08;17.23;;;11.75;;
48853;SDS011;34673;52.808;17.856;2023-09-12T02:12:37;19.08;;;11.80;;
48853;SDS011;34673;52.808;17.856;2023-09-12T02:15:05;18.02;;;11.98;;
48853;SDS011;34673;52.808;17.856;2023-09-12T02:17:33;19.95;;;11.93;;
48853;SDS011;34673;52.808;17.856;2023-09-12T02:20:01;17.85;;;12.20;;
48853;SDS011;34673;52.808;17.856;2023-09-12T02:22:31;23.55;;;11.63;;
48853;SDS011;34673;52.808;17.856;2023-09-12T02:24:58;17.85;;;12.63;;
48853;SDS011;34673;52.808;17.856;2023-09-12T02:27:26;20.80;;;11.93;;
48853;SDS011;34673;52.808;17.856;2023-09-12T02:29:53;15.95;;;12.10;;
48853;SDS011;34673;52.808;17.856;2023-09-12T02:32:20;24.65;;;12.52;;
48853;SDS011;34673;52.808;17.856;2023-09-12T02:34:47;22.17;;;13.55;;
48853;SDS011;34673;52.808;17.856;2023-09-12T02:37:14;19.52;;;12.77;;
48853;SDS011;34673;52.808;17.856;2023-09-12T02:39:42;23.35;;;13.57;;
48853;SDS011;34673;52.808;17.856;2023-09-12T02:42:09;21.38;;;13.82;;
48853;SDS011;34673;52.808;17.856;2023-09-12T02:44:37;19.33;;;12.73;;
48853;SDS011;34673;52.808;17.856;2023-09-12T02:47:05;19.15;;;12.95;;
48853;SDS011;34673;52.808;17.856;2023-09-12T02:49:33;19.30;;;13.30;;
48853;SDS011;34673;52.808;17.856;2023-09-12T02:52:00;21.73;;;13.98;;
48853;SDS011;34673;52.808;17.856;2023-09-12T02:54:27;20.58;;;13.45;;
48853;SDS011;34673;52.808;17.856;2023-09-12T02:56:54;21.05;;;13.68;;
48853;SDS011;34673;52.808;17.856;2023-09-12T02:59:21;21.20;;;13.55;;
48853;SDS011;34673;52.808;17.856;2023-09-12T03:01:48;24.77;;;14.10;;
48853;SDS011;34673;52.808;17.856;2023-09-12T03:04:16;21.92;;;13.57;;
48853;SDS011;34673;52.808;17.856;2023-09-12T03:06:43;22.15;;;13.75;;
48853;SDS011;34673;52.808;17.856;2023-09-12T03:09:10;21.83;;;13.82;;
48853;SDS011;34673;52.808;17.856;2023-09-12T03:11:39;24.92;;;13.95;;
48853;SDS011;34673;52.808;17.856;2023-09-12T03:14:06;22.05;;;14.63;;
48853;SDS011;34673;52.808;17.856;2023-09-12T03:16:33;21.00;;;13.55;;
48853;SDS011;34673;52.808;17.856;2023-09-12T03:19:00;23.33;;;14.13;;
48853;SDS011;34673;52.808;17.856;2023-09-12T03:21:30;22.33;;;13.75;;
48853;SDS011;34673;52.808;17.856;2023-09-12T03:23:57;25.90;;;14.40;;
48853;SDS011;34673;52.808;17.856;2023-09-12T03:26:24;27.25;;;15.77;;
48853;SDS011;34673;52.808;17.856;2023-09-12T03:28:52;29.55;;;16.65;;
48853;SDS011;34673;52.808;17.856;2023-09-12T03:31:19;27.55;;;16.08;;
48853;SDS011;34673;52.808;17.856;2023-09-12T03:33:46;25.92;;;15.27;;
48853;SDS011;34673;52.808;17.856;2023-09-12T03:36:17;21.38;;;15.20;;
48853;SDS011;34673;52.808;17.856;2023-09-12T03:38:45;24.50;;;14.07;;
48853;SDS011;34673;52.808;17.856;2023-09-12T03:41:13;21.88;;;15.45;;
48853;SDS011;34673;52.808;17.856;2023-09-12T03:43:40;20.60;;;15.77;;
48853;SDS011;34673;52.808;17.856;2023-09-12T03:46:08;24.30;;;15.43;;
48853;SDS011;34673;52.808;17.856;2023-09-12T03:48:35;28.00;;;16.88;;
48853;SDS011;34673;52.808;17.856;2023-09-12T03:51:03;30.55;;;16.45;;
48853;SDS011;34673;52.808;17.856;2023-09-12T03:53:31;24.02;;;15.55;;
48853;SDS011;34673;52.808;17.856;2023-09-12T03:55:58;26.27;;;16.25;;
48853;SDS011;34673;52.808;17.856;2023-09-12T03:58:27;23.25;;;16.02;;
48853;SDS011;34673;52.808;17.856;2023-09-12T04:00:54;20.55;;;14.80;;
48853;SDS011;34673;52.808;17.856;2023-09-12T04:03:21;29.23;;;16.98;;
48853;SDS011;34673;52.808;17.856;2023-09-12T04:05:50;26.05;;;17.15;;
48853;SDS011;34673;52.808;17.856;2023-09-12T04:08:17;30.98;;;17.77;;
48853;SDS011;34673;52.808;17.856;2023-09-12T04:10:45;26.20;;;17.00;;
48853;SDS011;34673;52.808;17.856;2023-09-12T04:13:12;25.75;;;16.52;;
48853;SDS011;34673;52.808;17.856;2023-09-12T04:15:39;28.38;;;17.00;;
48853;SDS011;34673;52.808;17.856;2023-09-12T04:18:06;22.27;;;15.25;;
48853;SDS011;34673;52.808;17.856;2023-09-12T04:20:34;24.55;;;16.08;;
48853;SDS011;34673;52.808;17.856;2023-09-12T04:23:02;25.10;;;16.40;;
48853;SDS011;34673;52.808;17.856;2023-09-12T04:25:29;28.15;;;16.15;;
48853;SDS011;34673;52.808;17.856;2023-09-12T04:27:57;22.17;;;15.45;;
48853;SDS011;34673;52.808;17.856;2023-09-12T04:30:25;23.08;;;15.05;;
48853;SDS011;34673;52.808;17.856;2023-09-12T04:32:53;23.02;;;14.98;;
48853;SDS011;34673;52.808;17.856;2023-09-12T04:35:21;24.67;;;15.93;;
48853;SDS011;34673;52.808;17.856;2023-09-12T04:37:49;28.00;;;17.23;;
48853;SDS011;34673;52.808;17.856;2023-09-12T04:40:16;26.67;;;15.60;;
48853;SDS011;34673;52.808;17.856;2023-09-12T04:42:43;22.20;;;15.68;;
48853;SDS011;34673;52.808;17.856;2023-09-12T04:45:10;23.95;;;15.85;;
48853;SDS011;34673;52.808;17.856;2023-09-12T04:47:38;23.90;;;15.18;;
48853;SDS011;34673;52.808;17.856;2023-09-12T04:50:06;26.92;;;16.13;;
48853;SDS011;34673;52.808;17.856;2023-09-12T04:52:34;22.30;;;15.95;;
48853;SDS011;34673;52.808;17.856;2023-09-12T04:55:01;20.00;;;15.13;;
48853;SDS011;34673;52.808;17.856;2023-09-12T04:57:29;20.25;;;15.13;;
48853;SDS011;34673;52.808;17.856;2023-09-12T04:59:58;26.42;;;15.57;;
48853;SDS011;34673;52.808;17.856;2023-09-12T05:02:25;21.95;;;15.60;;
48853;SDS011;34673;52.808;17.856;2023-09-12T05:04:52;22.65;;;15.15;;
48853;SDS011;34673;52.808;17.856;2023-09-12T05:07:21;21.90;;;14.63;;
48853;SDS011;34673;52.808;17.856;2023-09-12T05:09:49;23.80;;;14.63;;
48853;SDS011;34673;52.808;17.856;2023-09-12T05:12:17;20.33;;;14.23;;
48853;SDS011;34673;52.808;17.856;2023-09-12T05:14:45;21.88;;;13.85;;
48853;SDS011;34673;52.808;17.856;2023-09-12T05:17:12;26.50;;;15.05;;
48853;SDS011;34673;52.808;17.856;2023-09-12T05:19:39;19.23;;;13.63;;
48853;SDS011;34673;52.808;17.856;2023-09-12T05:22:07;24.10;;;15.05;;
48853;SDS011;34673;52.808;17.856;2023-09-12T05:24:34;25.55;;;14.88;;
48853;SDS011;34673;52.808;17.856;2023-09-12T05:27:01;19.77;;;13.63;;
48853;SDS011;34673;52.808;17.856;2023-09-12T05:29:29;17.98;;;12.88;;
48853;SDS011;34673;52.808;17.856;2023-09-12T05:31:56;20.88;;;13.43;;
48853;SDS011;34673;52.808;17.856;2023-09-12T05:34:23;21.63;;;13.60;;
48853;SDS011;34673;52.808;17.856;2023-09-12T05:36:50;19.48;;;13.23;;
48853;SDS011;34673;52.808;17.856;2023-09-12T05:39:18;21.20;;;13.45;;
48853;SDS011;34673;52.808;17.856;2023-09-12T05:41:45;19.10;;;13.05;;
48853;SDS011;34673;52.808;17.856;2023-09-12T05:44:12;22.33;;;14.15;;
48853;SDS011;34673;52.808;17.856;2023-09-12T05:46:48;20.67;;;13.65;;
48853;SDS011;34673;52.808;17.856;2023-09-12T05:49:15;21.70;;;14.30;;
48853;SDS011;34673;52.808;17.856;2023-09-12T05:51:43;18.88;;;14.00;;
48853;SDS011;34673;52.808;17.856;2023-09-12T05:54:10;23.48;;;14.50;;
48853;SDS011;34673;52.808;17.856;2023-09-12T05:56:40;19.42;;;13.52;;
48853;SDS011;34673;52.808;17.856;2023-09-12T05:59:08;20.05;;;13.43;;
48853;SDS011;34673;52.808;17.856;2023-09-12T06:01:35;19.45;;;13.38;;
48853;SDS011;34673;52.808;17.856;2023-09-12T06:04:03;21.40;;;13.48;;
48853;SDS011;34673;52.808;17.856;2023-09-12T06:06:32;21.00;;;13.65;;
48853;SDS011;34673;52.808;17.856;2023-09-12T06:08:59;19.48;;;12.70;;
48853;SDS011;34673;52.808;17.856;2023-09-12T06:11:26;18.90;;;12.85;;
48853;SDS011;34673;52.808;17.856;2023-09-12T06:13:53;23.00;;;13.32;;
48853;SDS011;34673;52.808;17.856;2023-09-12T06:16:21;19.40;;;12.82;;
48853;SDS011;34673;52.808;17.856;2023-09-12T06:18:49;22.52;;;13.15;;
48853;SDS011;34673;52.808;17.856;2023-09-12T06:21:16;19.13;;;12.20;;
48853;SDS011;34673;52.808;17.856;2023-09-12T06:23:43;17.02;;;12.45;;
48853;SDS011;34673;52.808;17.856;2023-09-12T06:26:11;19.08;;;11.98;;
48853;SDS011;34673;52.808;17.856;2023-09-12T06:28:38;26.58;;;13.85;;
48853;SDS011;34673;52.808;17.856;2023-09-12T06:31:07;21.33;;;13.55;;
48853;SDS011;34673;52.808;17.856;2023-09-12T06:33:37;20.38;;;12.88;;
48853;SDS011;34673;52.808;17.856;2023-09-12T06:36:04;18.23;;;13.02;;
48853;SDS011;34673;52.808;17.856;2023-09-12T06:38:32;19.83;;;13.98;;
48853;SDS011;34673;52.808;17.856;2023-09-12T06:40:59;24.02;;;13.77;;
48853;SDS011;34673;52.808;17.856;2023-09-12T06:43:26;22.55;;;12.75;;
48853;SDS011;34673;52.808;17.856;2023-09-12T06:45:53;23.13;;;14.23;;
48853;SDS011;34673;52.808;17.856;2023-09-12T06:48:20;19.45;;;13.25;;
48853;SDS011;34673;52.808;17.856;2023-09-12T06:50:48;19.02;;;12.57;;
48853;SDS011;34673;52.808;17.856;2023-09-12T06:53:19;18.00;;;12.05;;
48853;SDS011;34673;52.808;17.856;2023-09-12T06:55:47;19.55;;;11.43;;
48853;SDS011;34673;52.808;17.856;2023-09-12T06:58:14;20.13;;;11.15;;
48853;SDS011;34673;52.808;17.856;2023-09-12T07:00:41;14.45;;;11.20;;
48853;SDS011;34673;52.808;17.856;2023-09-12T07:03:09;15.52;;;11.20;;
48853;SDS011;34673;52.808;17.856;2023-09-12T07:05:41;15.98;;;10.75;;
48853;SDS011;34673;52.808;17.856;2023-09-12T07:08:09;15.55;;;11.57;;
48853;SDS011;34673;52.808;17.856;2023-09-12T07:10:36;17.30;;;11.25;;
48853;SDS011;34673;52.808;17.856;2023-09-12T07:13:04;21.63;;;11.35;;
48853;SDS011;34673;52.808;17.856;2023-09-12T07:15:31;15.93;;;10.88;;
48853;SDS011;34673;52.808;17.856;2023-09-12T07:17:58;15.00;;;10.15;;
48853;SDS011;34673;52.808;17.856;2023-09-12T07:20:26;14.70;;;9.80;;
48853;SDS011;34673;52.808;17.856;2023-09-12T07:22:54;13.57;;;10.75;;
48853;SDS011;34673;52.808;17.856;2023-09-12T07:25:22;15.25;;;9.90;;
48853;SDS011;34673;52.808;17.856;2023-09-12T07:27:50;14.73;;;11.07;;
48853;SDS011;34673;52.808;17.856;2023-09-12T07:30:18;15.98;;;10.57;;
48853;SDS011;34673;52.808;17.856;2023-09-12T07:32:45;18.35;;;10.27;;
48853;SDS011;34673;52.808;17.856;2023-09-12T07:35:13;19.08;;;9.93;;
48853;SDS011;34673;52.808;17.856;2023-09-12T07:37:40;15.00;;;9.75;;
48853;SDS011;34673;52.808;17.856;2023-09-12T07:40:08;16.02;;;10.40;;
48853;SDS011;34673;52.808;17.856;2023-09-12T07:42:36;14.25;;;10.23;;
48853;SDS011;34673;52.808;17.856;2023-09-12T07:45:04;14.68;;;9.40;;
48853;SDS011;34673;52.808;17.856;2023-09-12T07:47:32;12.05;;;9.43;;
48853;SDS011;34673;52.808;17.856;2023-09-12T07:50:00;13.27;;;9.50;;
48853;SDS011;34673;52.808;17.856;2023-09-12T07:52:28;16.20;;;9.10;;
48853;SDS011;34673;52.808;17.856;2023-09-12T07:54:59;12.40;;;9.18;;
48853;SDS011;34673;52.808;17.856;2023-09-12T07:57:27;15.00;;;8.90;;
48853;SDS011;34673;52.808;17.856;2023-09-12T07:59:58;16.42;;;8.73;;
48853;SDS011;34673;52.808;17.856;2023-09-12T08:02:25;12.30;;;7.57;;
48853;SDS011;34673;52.808;17.856;2023-09-12T08:04:53;14.35;;;8.25;;
48853;SDS011;34673;52.808;17.856;2023-09-12T08:07:21;13.07;;;8.23;;
48853;SDS011;34673;52.808;17.856;2023-09-12T08:09:49;10.48;;;7.82;;
48853;SDS011;34673;52.808;17.856;2023-09-12T08:14:47;11.70;;;8.65;;
48853;SDS011;34673;52.808;17.856;2023-09-12T08:17:14;10.82;;;8.10;;
48853;SDS011;34673;52.808;17.856;2023-09-12T08:19:42;12.10;;;7.72;;
48853;SDS011;34673;52.808;17.856;2023-09-12T08:22:10;12.73;;;8.23;;
48853;SDS011;34673;52.808;17.856;2023-09-12T08:24:37;10.88;;;7.68;;
48853;SDS011;34673;52.808;17.856;2023-09-12T08:27:08;12.30;;;7.75;;
48853;SDS011;34673;52.808;17.856;2023-09-12T08:29:36;12.32;;;7.45;;
48853;SDS011;34673;52.808;17.856;2023-09-12T08:32:05;13.00;;;7.55;;
48853;SDS011;34673;52.808;17.856;2023-09-12T08:34:32;8.10;;;6.72;;
48853;SDS011;34673;52.808;17.856;2023-09-12T08:36:59;10.70;;;6.82;;
48853;SDS011;34673;52.808;17.856;2023-09-12T08:39:27;11.30;;;7.47;;
48853;SDS011;34673;52.808;17.856;2023-09-12T08:41:54;12.38;;;7.47;;
48853;SDS011;34673;52.808;17.856;2023-09-12T08:44:22;12.52;;;6.70;;
48853;SDS011;34673;52.808;17.856;2023-09-12T08:46:50;8.02;;;6.28;;
48853;SDS011;34673;52.808;17.856;2023-09-12T08:49:18;11.27;;;6.65;;
48853;SDS011;34673;52.808;17.856;2023-09-12T08:51:45;10.85;;;6.32;;
48853;SDS011;34673;52.808;17.856;2023-09-12T08:54:12;12.55;;;7.18;;
48853;SDS011;34673;52.808;17.856;2023-09-12T08:56:40;13.38;;;6.60;;
48853;SDS011;34673;52.808;17.856;2023-09-12T08:59:10;10.35;;;6.00;;
48853;SDS011;34673;52.808;17.856;2023-09-12T09:01:38;9.52;;;5.63;;
48853;SDS011;34673;52.808;17.856;2023-09-12T09:04:07;8.05;;;5.90;;
48853;SDS011;34673;52.808;17.856;2023-09-12T09:06:34;10.57;;;6.85;;
48853;SDS011;34673;52.808;17.856;2023-09-12T09:09:07;9.00;;;6.03;;
48853;SDS011;34673;52.808;17.856;2023-09-12T09:11:35;12.00;;;6.57;;
48853;SDS011;34673;52.808;17.856;2023-09-12T09:14:03;8.57;;;6.28;;
48853;SDS011;34673;52.808;17.856;2023-09-12T09:16:30;9.85;;;6.13;;
48853;SDS011;34673;52.808;17.856;2023-09-12T09:18:59;8.25;;;6.20;;
48853;SDS011;34673;52.808;17.856;2023-09-12T09:21:28;9.68;;;6.65;;
48853;SDS011;34673;52.808;17.856;2023-09-12T09:24:03;8.90;;;6.13;;
48853;SDS011;34673;52.808;17.856;2023-09-12T09:26:42;9.52;;;6.20;;
48853;SDS011;34673;52.808;17.856;2023-09-12T09:29:15;9.52;;;5.88;;
48853;SDS011;34673;52.808;17.856;2023-09-12T09:31:44;7.55;;;5.93;;
48853;SDS011;34673;52.808;17.856;2023-09-12T09:34:18;8.35;;;6.18;;
48853;SDS011;34673;52.808;17.856;2023-09-12T09:39:19;9.05;;;6.18;;
48853;SDS011;34673;52.808;17.856;2023-09-12T09:41:47;8.25;;;6.00;;
48853;SDS011;34673;52.808;17.856;2023-09-12T09:44:16;8.80;;;6.25;;
48853;SDS011;34673;52.808;17.856;2023-09-12T09:46:44;8.48;;;6.32;;
48853;SDS011;34673;52.808;17.856;2023-09-12T09:49:16;10.50;;;6.97;;
48853;SDS011;34673;52.808;17.856;2023-09-12T09:51:47;7.65;;;6.45;;
48853;SDS011;34673;52.808;17.856;2023-09-12T09:54:15;11.90;;;6.55;;
48853;SDS011;34673;52.808;17.856;2023-09-12T09:56:49;7.80;;;6.43;;
48853;SDS011;34673;52.808;17.856;2023-09-12T09:59:18;8.02;;;6.45;;
48853;SDS011;34673;52.808;17.856;2023-09-12T10:01:48;10.77;;;7.05;;
48853;SDS011;34673;52.808;17.856;2023-09-12T10:04:17;9.25;;;6.32;;
48853;SDS011;34673;52.808;17.856;2023-09-12T10:06:45;7.32;;;6.13;;
48853;SDS011;34673;52.808;17.856;2023-09-12T10:09:13;11.70;;;6.32;;
48853;SDS011;34673;52.808;17.856;2023-09-12T10:11:43;7.10;;;6.00;;
48853;SDS011;34673;52.808;17.856;2023-09-12T10:14:14;9.00;;;6.53;;
48853;SDS011;34673;52.808;17.856;2023-09-12T10:16:44;8.52;;;6.38;;
48853;SDS011;34673;52.808;17.856;2023-09-12T10:19:17;8.30;;;5.93;;
48853;SDS011;34673;52.808;17.856;2023-09-12T10:21:53;8.13;;;6.53;;
48853;SDS011;34673;52.808;17.856;2023-09-12T10:24:29;8.90;;;5.85;;
48853;SDS011;34673;52.808;17.856;2023-09-12T10:26:58;9.88;;;6.45;;
48853;SDS011;34673;52.808;17.856;2023-09-12T10:29:26;8.80;;;6.05;;
48853;SDS011;34673;52.808;17.856;2023-09-12T10:31:53;9.93;;;6.18;;
48853;SDS011;34673;52.808;17.856;2023-09-12T10:34:21;7.82;;;6.15;;
48853;SDS011;34673;52.808;17.856;2023-09-12T10:36:52;9.07;;;6.45;;
48853;SDS011;34673;52.808;17.856;2023-09-12T10:39:22;9.70;;;6.53;;
48853;SDS011;34673;52.808;17.856;2023-09-12T10:41:50;7.25;;;6.22;;
48853;SDS011;34673;52.808;17.856;2023-09-12T10:44:21;9.27;;;6.25;;
48853;SDS011;34673;52.808;17.856;2023-09-12T10:46:48;10.02;;;6.03;;
48853;SDS011;34673;52.808;17.856;2023-09-12T10:49:17;7.75;;;6.40;;
48853;SDS011;34673;52.808;17.856;2023-09-12T10:51:46;9.35;;;5.75;;
48853;SDS011;34673;52.808;17.856;2023-09-12T10:54:16;7.30;;;5.80;;
48853;SDS011;34673;52.808;17.856;2023-09-12T10:57:02;8.23;;;6.03;;
48853;SDS011;34673;52.808;17.856;2023-09-12T10:59:31;8.43;;;5.70;;
48853;SDS011;34673;52.808;17.856;2023-09-12T11:04:58;9.82;;;6.43;;
48853;SDS011;34673;52.808;17.856;2023-09-12T11:12:47;8.93;;;6.15;;
48853;SDS011;34673;52.808;17.856;2023-09-12T11:15:20;9.48;;;7.00;;
48853;SDS011;34673;52.808;17.856;2023-09-12T11:17:49;7.93;;;6.35;;
48853;SDS011;34673;52.808;17.856;2023-09-12T11:20:47;7.32;;;6.30;;
48853;SDS011;34673;52.808;17.856;2023-09-12T11:23:18;10.32;;;6.28;;
48853;SDS011;34673;52.808;17.856;2023-09-12T11:25:46;8.38;;;6.35;;
48853;SDS011;34673;52.808;17.856;2023-09-12T11:28:14;8.63;;;5.97;;
48853;SDS011;34673;52.808;17.856;2023-09-12T11:30:55;8.88;;;6.55;;
48853;SDS011;34673;52.808;17.856;2023-09-12T11:33:25;8.77;;;6.55;;
48853;SDS011;34673;52.808;17.856;2023-09-12T11:35:53;9.43;;;6.85;;
48853;SDS011;34673;52.808;17.856;2023-09-12T11:38:30;8.98;;;6.47;;
48853;SDS011;34673;52.808;17.856;2023-09-12T11:40:59;13.00;;;6.43;;
48853;SDS011;34673;52.808;17.856;2023-09-12T11:43:27;7.35;;;6.35;;
48853;SDS011;34673;52.808;17.856;2023-09-12T11:45:55;8.15;;;6.60;;
48853;SDS011;34673;52.808;17.856;2023-09-12T11:48:24;12.00;;;7.73;;
48853;SDS011;34673;52.808;17.856;2023-09-12T11:50:52;9.30;;;6.32;;
48853;SDS011;34673;52.808;17.856;2023-09-12T11:53:22;8.90;;;6.40;;
48853;SDS011;34673;52.808;17.856;2023-09-12T11:55:59;8.68;;;6.38;;
48853;SDS011;34673;52.808;17.856;2023-09-12T11:58:27;8.80;;;6.75;;
48853;SDS011;34673;52.808;17.856;2023-09-12T12:00:55;12.98;;;6.60;;
48853;SDS011;34673;52.808;17.856;2023-09-12T12:03:25;8.30;;;6.18;;
48853;SDS011;34673;52.808;17.856;2023-09-12T12:05:55;12.80;;;7.25;;
48853;SDS011;34673;52.808;17.856;2023-09-12T12:08:23;9.35;;;6.22;;
48853;SDS011;34673;52.808;17.856;2023-09-12T12:10:58;10.20;;;6.45;;
48853;SDS011;34673;52.808;17.856;2023-09-12T12:13:26;10.50;;;6.43;;
48853;SDS011;34673;52.808;17.856;2023-09-12T12:15:55;11.32;;;6.10;;
48853;SDS011;34673;52.808;17.856;2023-09-12T12:18:24;8.52;;;6.28;;
48853;SDS011;34673;52.808;17.856;2023-09-12T12:20:52;11.00;;;6.20;;
48853;SDS011;34673;52.808;17.856;2023-09-12T12:23:20;10.18;;;6.43;;
48853;SDS011;34673;52.808;17.856;2023-09-12T12:25:48;8.13;;;6.50;;
48853;SDS011;34673;52.808;17.856;2023-09-12T12:28:16;8.20;;;6.47;;
48853;SDS011;34673;52.808;17.856;2023-09-12T12:30:43;8.35;;;6.05;;
48853;SDS011;34673;52.808;17.856;2023-09-12T12:33:11;8.95;;;6.35;;
48853;SDS011;34673;52.808;17.856;2023-09-12T12:36:07;8.23;;;6.35;;
48853;SDS011;34673;52.808;17.856;2023-09-12T12:38:36;10.38;;;6.30;;
48853;SDS011;34673;52.808;17.856;2023-09-12T12:41:25;9.90;;;5.90;;
48853;SDS011;34673;52.808;17.856;2023-09-12T12:44:05;8.93;;;6.18;;
48853;SDS011;34673;52.808;17.856;2023-09-12T12:46:33;9.10;;;5.90;;
48853;SDS011;34673;52.808;17.856;2023-09-12T12:49:00;8.52;;;6.32;;
48853;SDS011;34673;52.808;17.856;2023-09-12T12:51:28;6.70;;;6.00;;
48853;SDS011;34673;52.808;17.856;2023-09-12T12:54:03;9.50;;;6.03;;
48853;SDS011;34673;52.808;17.856;2023-09-12T12:56:31;9.55;;;5.82;;
48853;SDS011;34673;52.808;17.856;2023-09-12T12:58:59;7.78;;;5.82;;
48853;SDS011;34673;52.808;17.856;2023-09-12T13:01:30;10.40;;;5.90;;
48853;SDS011;34673;52.808;17.856;2023-09-12T13:03:58;11.65;;;5.55;;
48853;SDS011;34673;52.808;17.856;2023-09-12T13:06:25;9.30;;;5.78;;
48853;SDS011;34673;52.808;17.856;2023-09-12T13:08:54;8.93;;;6.10;;
48853;SDS011;34673;52.808;17.856;2023-09-12T13:11:24;6.22;;;5.53;;
48853;SDS011;34673;52.808;17.856;2023-09-12T13:13:51;7.45;;;5.72;;
48853;SDS011;34673;52.808;17.856;2023-09-12T13:16:19;9.65;;;5.45;;
48853;SDS011;34673;52.808;17.856;2023-09-12T13:18:46;8.05;;;5.53;;
48853;SDS011;34673;52.808;17.856;2023-09-12T13:21:13;6.97;;;5.47;;
48853;SDS011;34673;52.808;17.856;2023-09-12T13:23:41;8.20;;;5.20;;
48853;SDS011;34673;52.808;17.856;2023-09-12T13:26:09;7.88;;;5.57;;
48853;SDS011;34673;52.808;17.856;2023-09-12T13:28:36;8.43;;;5.63;;
48853;SDS011;34673;52.808;17.856;2023-09-12T13:31:05;10.50;;;6.03;;
48853;SDS011;34673;52.808;17.856;2023-09-12T13:33:32;12.65;;;6.10;;
48853;SDS011;34673;52.808;17.856;2023-09-12T13:35:59;9.77;;;5.78;;
48853;SDS011;34673;52.808;17.856;2023-09-12T13:38:26;9.20;;;5.88;;
48853;SDS011;34673;52.808;17.856;2023-09-12T13:40:54;8.98;;;5.57;;
48853;SDS011;34673;52.808;17.856;2023-09-12T13:43:21;9.63;;;6.30;;
48853;SDS011;34673;52.808;17.856;2023-09-12T13:45:49;11.52;;;5.88;;
48853;SDS011;34673;52.808;17.856;2023-09-12T13:48:17;9.63;;;5.82;;
48853;SDS011;34673;52.808;17.856;2023-09-12T13:50:45;11.18;;;5.40;;
48853;SDS011;34673;52.808;17.856;2023-09-12T13:53:12;9.02;;;5.88;;
48853;SDS011;34673;52.808;17.856;2023-09-12T13:55:41;7.30;;;5.40;;
48853;SDS011;34673;52.808;17.856;2023-09-12T13:58:08;7.85;;;5.80;;
48853;SDS011;34673;52.808;17.856;2023-09-12T14:00:35;7.70;;;5.80;;
48853;SDS011;34673;52.808;17.856;2023-09-12T14:03:03;7.97;;;5.70;;
48853;SDS011;34673;52.808;17.856;2023-09-12T14:05:31;7.80;;;5.38;;
48853;SDS011;34673;52.808;17.856;2023-09-12T14:07:59;8.45;;;5.30;;
48853;SDS011;34673;52.808;17.856;2023-09-12T14:10:27;7.63;;;5.30;;
48853;SDS011;34673;52.808;17.856;2023-09-12T14:13:03;9.80;;;5.60;;
48853;SDS011;34673;52.808;17.856;2023-09-12T14:15:46;7.18;;;5.47;;
48853;SDS011;34673;52.808;17.856;2023-09-12T14:18:17;8.65;;;5.18;;
48853;SDS011;34673;52.808;17.856;2023-09-12T14:20:45;6.13;;;5.03;;
48853;SDS011;34673;52.808;17.856;2023-09-12T14:23:14;9.00;;;5.00;;
48853;SDS011;34673;52.808;17.856;2023-09-12T14:25:43;9.07;;;5.70;;
48853;SDS011;34673;52.808;17.856;2023-09-12T14:28:12;8.80;;;5.18;;
48853;SDS011;34673;52.808;17.856;2023-09-12T14:30:41;10.15;;;5.20;;
48853;SDS011;34673;52.808;17.856;2023-09-12T14:33:12;8.32;;;5.43;;
48853;SDS011;34673;52.808;17.856;2023-09-12T14:35:43;8.30;;;5.40;;
48853;SDS011;34673;52.808;17.856;2023-09-12T14:38:11;9.68;;;5.72;;
48853;SDS011;34673;52.808;17.856;2023-09-12T14:40:38;9.15;;;5.57;;
48853;SDS011;34673;52.808;17.856;2023-09-12T14:43:10;9.20;;;5.60;;
48853;SDS011;34673;52.808;17.856;2023-09-12T14:45:38;7.47;;;5.07;;
48853;SDS011;34673;52.808;17.856;2023-09-12T14:48:06;9.10;;;5.43;;